Time;durP1;ratioP1;P1;durP2;ratioP2;P2;SDS_P1;SDS_P2;PMS_P1;PMS_P2;Temp;Humidity;BMP_temperature;BMP_pressure;BME280_temperature;BME280_humidity;BME280_pressure;Samples;Min_cycle;Max_cycle;Signal;HPM_P1;HPM_P2
2021/06/04 00:02:17;;;;;;;6.63;6.13;;;18.90;85.00;;;;;;5022184;28;20476;-75
2021/06/04 00:04:43;;;;;;;7.90;7.13;;;18.80;86.20;;;;;;5019908;28;20448;-75
2021/06/04 00:07:10;;;;;;;7.57;6.87;;;18.70;87.50;;;;;;5026284;28;20495;-75
2021/06/04 00:09:36;;;;;;;7.40;6.70;;;18.70;88.60;;;;;;5021222;28;20433;-75
2021/06/04 00:12:04;;;;;;;8.87;8.17;;;18.70;90.50;;;;;;5019020;28;20503;-76
2021/06/04 00:14:34;;;;;;;8.77;7.97;;;18.60;91.30;;;;;;5017542;28;20764;-76
2021/06/04 00:17:06;;;;;;;8.43;7.63;;;18.50;92.10;;;;;;5017033;28;20483;-76
2021/06/04 00:19:35;;;;;;;7.90;7.10;;;18.50;92.90;;;;;;5016255;28;20934;-76
2021/06/04 00:22:06;;;;;;;7.43;6.77;;;18.50;93.00;;;;;;5016969;28;20492;-76
2021/06/04 00:24:34;;;;;;;7.13;6.53;;;18.50;93.50;;;;;;5017841;28;20497;-76
2021/06/04 00:27:00;;;;;;;7.67;6.97;;;18.50;93.80;;;;;;5026293;28;20440;-75
2021/06/04 00:29:26;;;;;;;10.63;8.03;;;18.50;94.10;;;;;;5035646;28;20477;-75
2021/06/04 00:31:54;;;;;;;7.30;6.80;;;18.40;94.70;;;;;;5034553;28;20496;-75
2021/06/04 00:34:23;;;;;;;7.60;6.90;;;18.40;94.70;;;;;;5026270;28;20797;-76
2021/06/04 00:36:50;;;;;;;6.90;6.30;;;18.30;95.20;;;;;;5016571;28;20447;-75
2021/06/04 00:39:18;;;;;;;8.47;7.63;;;18.20;95.10;;;;;;5016946;28;20514;-76
2021/06/04 00:41:48;;;;;;;8.70;7.80;;;18.20;95.50;;;;;;5018139;28;20789;-76
2021/06/04 00:44:15;;;;;;;8.17;7.47;;;18.20;95.50;;;;;;5017847;28;20466;-76
2021/06/04 00:46:43;;;;;;;8.37;7.73;;;18.20;95.40;;;;;;5019617;28;20458;-75
2021/06/04 00:49:10;;;;;;;8.93;8.17;;;18.20;95.50;;;;;;5026625;28;20486;-77
2021/06/04 00:51:41;;;;;;;7.70;7.10;;;18.20;95.70;;;;;;5018366;28;20908;-76
2021/06/04 00:54:10;;;;;;;8.23;7.53;;;18.10;95.80;;;;;;5016924;28;20470;-76
2021/06/04 00:56:38;;;;;;;8.53;7.50;;;18.10;96.10;;;;;;5020213;28;20475;-76
2021/06/04 00:59:07;;;;;;;8.33;7.53;;;18.00;96.30;;;;;;5021931;28;20470;-77
2021/06/04 01:01:36;;;;;;;7.97;7.37;;;18.00;96.40;;;;;;5025298;28;20440;-74
2021/06/04 01:04:07;;;;;;;8.50;7.70;;;18.00;96.70;;;;;;5036665;28;20417;-75
2021/06/04 01:06:39;;;;;;;8.70;7.80;;;17.90;97.60;;;;;;5036728;28;20454;-74
2021/06/04 01:09:40;;;;;;;8.50;7.80;;;17.80;98.10;;;;;;5036196;28;20481;-74
2021/06/04 01:12:39;;;;;;;9.23;8.23;;;17.90;98.20;;;;;;5016923;28;20512;-77
2021/06/04 01:15:11;;;;;;;8.83;8.13;;;17.90;98.30;;;;;;5005855;28;20448;-76
2021/06/04 01:17:45;;;;;;;8.23;7.43;;;17.90;98.20;;;;;;5021930;28;20482;-78
2021/06/04 01:20:16;;;;;;;9.97;9.10;;;17.90;98.20;;;;;;5019018;28;20433;-76
2021/06/04 01:23:07;;;;;;;9.00;8.27;;;17.80;98.40;;;;;;5017182;28;20436;-75
2021/06/04 01:25:43;;;;;;;8.47;7.77;;;17.80;98.80;;;;;;5018601;28;20413;-76
2021/06/04 01:28:15;;;;;;;9.30;8.40;;;17.80;98.70;;;;;;5019967;28;20802;-75
2021/06/04 01:30:46;;;;;;;9.27;8.27;;;17.90;98.80;;;;;;5019193;28;20488;-77
2021/06/04 01:33:17;;;;;;;8.97;8.13;;;17.90;98.60;;;;;;5019191;28;20613;-76
2021/06/04 01:35:47;;;;;;;8.30;7.53;;;17.80;98.80;;;;;;5015810;28;20935;-76
2021/06/04 01:38:16;;;;;;;8.80;8.10;;;17.80;99.00;;;;;;5021738;28;20506;-75
2021/06/04 01:40:48;;;;;;;9.33;8.30;;;17.80;99.00;;;;;;5029739;28;20522;-75
2021/06/04 01:43:18;;;;;;;8.77;7.80;;;17.90;99.20;;;;;;5016533;28;20443;-77
2021/06/04 01:45:51;;;;;;;9.77;8.87;;;17.90;99.50;;;;;;5016205;28;20509;-76
2021/06/04 01:48:22;;;;;;;9.47;8.47;;;18.00;99.70;;;;;;5016493;28;20457;-75
2021/06/04 01:50:56;;;;;;;9.63;8.77;;;18.00;99.40;;;;;;5016950;28;20464;-75
2021/06/04 01:53:26;;;;;;;9.13;8.33;;;17.90;99.30;;;;;;5017163;28;20452;-76
2021/06/04 01:56:00;;;;;;;8.67;8.00;;;17.90;99.60;;;;;;5022415;28;20454;-76
2021/06/04 01:58:32;;;;;;;11.37;9.30;;;17.90;99.90;;;;;;5015650;28;20981;-77
2021/06/04 02:01:03;;;;;;;8.13;7.43;;;18.00;99.80;;;;;;5014493;28;20472;-78
2021/06/04 02:03:31;;;;;;;9.00;8.20;;;18.00;99.30;;;;;;5017982;28;20460;-76
2021/06/04 02:05:59;;;;;;;8.80;8.10;;;17.90;98.80;;;;;;5018716;28;20962;-76
2021/06/04 02:08:29;;;;;;;8.27;7.47;;;17.90;99.00;;;;;;5038606;22;20469;-77
2021/06/04 02:10:58;;;;;;;8.07;7.37;;;17.90;99.40;;;;;;5018667;28;20433;-79
2021/06/04 02:13:25;;;;;;;8.63;7.67;;;17.90;99.50;;;;;;5022475;28;20573;-79
2021/06/04 02:16:05;;;;;;;9.10;8.20;;;17.90;99.10;;;;;;5021957;28;20429;-77
2021/06/04 02:18:40;;;;;;;9.47;8.57;;;17.80;99.00;;;;;;5017464;28;20499;-77
2021/06/04 02:21:19;;;;;;;8.80;8.00;;;17.80;99.90;;;;;;5016994;28;20583;-78
2021/06/04 02:23:50;;;;;;;9.70;8.90;;;17.80;99.90;;;;;;5016001;28;20472;-78
2021/06/04 02:26:24;;;;;;;10.13;9.23;;;17.70;99.90;;;;;;5017223;28;20942;-77
2021/06/04 02:28:56;;;;;;;8.90;8.07;;;17.60;99.90;;;;;;5016197;28;20454;-77
2021/06/04 02:31:28;;;;;;;9.37;8.50;;;17.50;99.90;;;;;;5017173;28;20950;-77
2021/06/04 02:34:00;;;;;;;9.87;9.07;;;17.50;99.90;;;;;;5015451;28;20465;-77
2021/06/04 02:36:31;;;;;;;9.07;8.37;;;17.50;99.90;;;;;;5016123;28;20489;-78
2021/06/04 02:39:05;;;;;;;9.37;8.30;;;17.50;99.90;;;;;;5016692;28;20545;-77
2021/06/04 02:41:38;;;;;;;9.23;8.47;;;17.50;99.90;;;;;;5023597;28;20539;-78
2021/06/04 02:44:09;;;;;;;8.37;7.77;;;17.50;99.90;;;;;;5016100;28;20525;-78
2021/06/04 02:46:41;;;;;;;9.30;8.50;;;17.50;99.90;;;;;;5018415;28;20454;-77
2021/06/04 02:49:10;;;;;;;9.77;8.97;;;17.50;99.90;;;;;;5016898;28;20453;-77
2021/06/04 02:51:41;;;;;;;9.63;8.73;;;17.50;99.90;;;;;;5018527;28;20467;-78
2021/06/04 02:54:12;;;;;;;9.33;8.50;;;17.50;99.90;;;;;;5016843;28;20425;-78
2021/06/04 02:56:44;;;;;;;8.03;7.30;;;17.60;99.90;;;;;;5016628;28;20489;-78
2021/06/04 02:59:21;;;;;;;8.80;8.00;;;17.60;99.90;;;;;;5025268;28;20473;-78
2021/06/04 03:01:52;;;;;;;9.10;8.30;;;17.70;99.90;;;;;;5028838;28;20481;-78
2021/06/04 03:04:19;;;;;;;9.37;8.47;;;17.70;99.90;;;;;;5021054;28;20441;-78
2021/06/04 03:06:51;;;;;;;10.13;9.30;;;17.80;99.90;;;;;;5016878;28;20537;-77
2021/06/04 03:09:21;;;;;;;8.50;7.70;;;17.80;99.90;;;;;;5019290;28;20514;-78
2021/06/04 03:11:52;;;;;;;7.90;7.30;;;17.90;99.90;;;;;;5018378;28;20438;-78
2021/06/04 03:14:19;;;;;;;8.83;8.03;;;18.00;99.50;;;;;;5018828;28;20429;-77
2021/06/04 03:16:48;;;;;;;7.43;6.83;;;18.10;98.60;;;;;;5021078;28;20461;-77
2021/06/04 03:19:17;;;;;;;8.57;7.60;;;18.10;98.30;;;;;;5021304;28;20453;-77
2021/06/04 03:21:48;;;;;;;10.27;7.50;;;18.20;97.80;;;;;;5016773;28;20941;-77
2021/06/04 03:24:18;;;;;;;7.23;6.63;;;18.20;96.60;;;;;;5015961;28;20429;-77
2021/06/04 03:26:46;;;;;;;8.20;7.40;;;18.10;96.00;;;;;;5017493;28;20421;-77
2021/06/04 03:29:16;;;;;;;7.47;6.90;;;18.10;95.80;;;;;;5018658;28;21089;-78
2021/06/04 03:31:45;;;;;;;7.90;7.30;;;18.00;95.30;;;;;;5019621;28;20856;-78
2021/06/04 03:34:13;;;;;;;11.33;8.70;;;18.00;95.80;;;;;;5018441;28;20444;-77
2021/06/04 03:36:42;;;;;;;7.20;6.60;;;18.00;95.40;;;;;;5025184;28;20429;-78
2021/06/04 03:39:12;;;;;;;7.63;6.93;;;18.10;95.40;;;;;;5023012;28;20529;-78
2021/06/04 03:41:41;;;;;;;6.90;6.40;;;18.20;95.70;;;;;;5027486;28;20802;-78
2021/06/04 03:44:12;;;;;;;8.50;7.63;;;18.30;95.50;;;;;;5024497;28;20500;-78
2021/06/04 03:46:41;;;;;;;8.17;7.30;;;18.40;95.20;;;;;;5015939;28;20463;-78
2021/06/04 03:49:08;;;;;;;8.30;7.23;;;18.40;94.90;;;;;;5016653;28;20449;-78
2021/06/04 03:51:37;;;;;;;7.73;6.37;;;18.50;94.80;;;;;;5017954;28;20460;-78
2021/06/04 03:54:08;;;;;;;8.10;7.30;;;18.50;94.80;;;;;;5017469;28;20426;-78
2021/06/04 03:56:35;;;;;;;7.37;6.77;;;18.50;94.00;;;;;;5014826;28;20442;-77
2021/06/04 03:59:03;;;;;;;7.87;7.17;;;18.60;93.70;;;;;;5013857;28;20471;-77
2021/06/04 04:01:33;;;;;;;7.47;6.87;;;18.70;92.90;;;;;;5014469;28;20539;-77
2021/06/04 04:04:01;;;;;;;8.40;6.97;;;18.70;92.50;;;;;;5014699;28;20425;-77
2021/06/04 04:06:28;;;;;;;8.60;7.80;;;18.70;91.70;;;;;;5015329;28;20562;-77
2021/06/04 04:08:54;;;;;;;7.80;7.20;;;18.70;91.10;;;;;;5015447;28;20871;-77
2021/06/04 04:11:21;;;;;;;8.80;8.00;;;18.80;90.80;;;;;;5016894;28;20583;-78
2021/06/04 04:13:48;;;;;;;8.37;7.67;;;18.80;90.80;;;;;;5014949;28;20921;-77
2021/06/04 04:16:15;;;;;;;8.17;7.37;;;18.80;91.20;;;;;;5014416;28;20893;-77
2021/06/04 04:18:41;;;;;;;8.80;8.00;;;18.70;91.20;;;;;;5014304;28;20550;-77
2021/06/04 04:21:11;;;;;;;10.40;9.40;;;18.70;91.20;;;;;;5014268;28;20951;-78
2021/06/04 04:23:40;;;;;;;10.83;9.83;;;18.80;91.50;;;;;;5014167;28;20429;-78
2021/06/04 04:26:08;;;;;;;9.60;8.90;;;18.80;91.70;;;;;;5013901;28;20429;-78
2021/06/04 04:28:39;;;;;;;11.87;10.77;;;18.70;92.40;;;;;;5016290;28;20547;-77
2021/06/04 04:31:08;;;;;;;10.87;9.87;;;18.80;92.70;;;;;;5015969;28;20481;-77
2021/06/04 04:33:35;;;;;;;10.00;9.13;;;18.90;92.90;;;;;;5014067;28;20755;-78
2021/06/04 04:36:02;;;;;;;11.40;10.33;;;18.90;92.50;;;;;;5014756;28;20455;-78
2021/06/04 04:38:29;;;;;;;11.07;10.07;;;19.00;92.30;;;;;;5014641;28;20457;-78
2021/06/04 04:41:00;;;;;;;11.90;10.73;;;19.00;92.00;;;;;;5014807;28;20477;-78
2021/06/04 04:43:28;;;;;;;12.17;10.97;;;18.90;92.70;;;;;;5016301;28;20462;-78
2021/06/04 04:45:55;;;;;;;11.63;10.73;;;18.70;93.80;;;;;;5014315;28;20444;-78
2021/06/04 04:48:21;;;;;;;13.13;11.90;;;18.80;94.10;;;;;;5015206;28;20484;-78
2021/06/04 04:50:48;;;;;;;14.23;12.47;;;18.90;93.40;;;;;;5016618;28;20905;-78
2021/06/04 04:53:15;;;;;;;13.20;11.97;;;19.00;92.60;;;;;;5017070;28;20495;-79
2021/06/04 04:55:43;;;;;;;13.90;12.70;;;19.00;92.40;;;;;;5015824;28;20537;-78
2021/06/04 04:58:11;;;;;;;12.40;11.40;;;19.20;91.40;;;;;;5029503;28;20494;-78
2021/06/04 05:00:39;;;;;;;12.20;10.93;;;19.20;91.40;;;;;;5033628;28;20531;-78
2021/06/04 05:03:07;;;;;;;12.50;11.40;;;19.20;91.10;;;;;;5018336;28;20449;-78
2021/06/04 05:05:34;;;;;;;13.73;12.20;;;19.00;91.80;;;;;;5023114;28;20553;-78
2021/06/04 05:08:00;;;;;;;13.27;11.93;;;18.80;92.90;;;;;;5024351;28;20494;-78
2021/06/04 05:10:27;;;;;;;8.73;8.00;;;19.00;92.70;;;;;;5020073;28;20461;-78
2021/06/04 05:12:55;;;;;;;10.40;7.60;;;19.20;89.40;;;;;;5014971;28;20496;-76
2021/06/04 05:15:25;;;;;;;10.97;7.50;;;19.40;86.10;;;;;;5018138;28;20520;-76
2021/06/04 05:17:52;;;;;;;7.70;7.10;;;19.50;85.00;;;;;;5031146;28;20472;-77
2021/06/04 05:20:20;;;;;;;8.07;7.47;;;19.50;81.70;;;;;;5016404;28;20538;-78
2021/06/04 05:22:47;;;;;;;7.60;6.90;;;19.60;80.70;;;;;;5015241;28;20538;-77
2021/06/04 05:25:21;;;;;;;7.63;7.10;;;19.70;80.10;;;;;;5018938;28;20565;-78
2021/06/04 05:27:50;;;;;;;8.83;8.03;;;19.70;79.80;;;;;;5017782;28;20454;-78
2021/06/04 05:30:24;;;;;;;7.50;6.90;;;19.80;79.40;;;;;;5016355;28;20440;-78
2021/06/04 05:32:50;;;;;;;7.90;7.20;;;19.80;78.80;;;;;;5014794;28;20533;-77
2021/06/04 05:35:17;;;;;;;9.13;8.17;;;19.90;77.90;;;;;;5014247;28;20455;-78
2021/06/04 05:37:44;;;;;;;8.60;7.90;;;20.00;76.70;;;;;;5018414;28;20546;-78
2021/06/04 05:40:14;;;;;;;8.80;8.10;;;19.80;78.00;;;;;;5029198;28;20498;-78
2021/06/04 05:42:41;;;;;;;9.93;8.93;;;19.80;78.60;;;;;;5023184;28;20457;-78
2021/06/04 05:45:08;;;;;;;8.70;7.43;;;19.90;77.30;;;;;;5023027;28;20530;-78
2021/06/04 05:47:36;;;;;;;8.07;7.27;;;19.90;77.20;;;;;;5022475;28;20471;-78
2021/06/04 05:50:04;;;;;;;9.27;7.57;;;20.10;76.80;;;;;;5023648;28;20514;-79
2021/06/04 05:52:31;;;;;;;8.93;7.73;;;20.10;76.80;;;;;;5028198;28;20475;-79
2021/06/04 05:54:57;;;;;;;10.60;9.70;;;20.10;76.80;;;;;;5024078;28;20526;-78
2021/06/04 05:57:23;;;;;;;10.40;9.50;;;20.00;76.70;;;;;;5020043;28;20481;-78
2021/06/04 05:59:50;;;;;;;11.10;10.00;;;19.80;78.30;;;;;;5019097;28;20587;-78
2021/06/04 06:02:16;;;;;;;9.70;8.90;;;19.40;83.40;;;;;;5018164;28;20432;-77
2021/06/04 06:04:44;;;;;;;11.03;9.53;;;19.30;85.50;;;;;;5017091;28;20439;-78
2021/06/04 06:07:11;;;;;;;11.53;9.27;;;19.50;85.10;;;;;;5031134;28;20464;-77
2021/06/04 06:09:37;;;;;;;13.20;8.60;;;19.80;82.00;;;;;;5034563;28;20455;-78
2021/06/04 06:12:04;;;;;;;9.50;8.70;;;19.70;80.80;;;;;;5019650;28;20450;-78
2021/06/04 06:14:31;;;;;;;10.73;9.63;;;19.70;81.60;;;;;;5019223;28;20464;-78
2021/06/04 06:16:57;;;;;;;10.50;9.53;;;19.80;80.40;;;;;;5018618;28;20528;-78
2021/06/04 06:19:24;;;;;;;9.97;9.03;;;19.70;81.10;;;;;;5022797;28;20480;-80
2021/06/04 06:21:53;;;;;;;10.43;9.37;;;19.80;81.50;;;;;;5019218;28;20462;-79
2021/06/04 06:24:19;;;;;;;9.77;8.77;;;19.60;82.60;;;;;;5018891;28;20439;-78
2021/06/04 06:26:47;;;;;;;8.57;7.83;;;19.50;85.00;;;;;;5018447;28;20469;-78
2021/06/04 06:29:16;;;;;;;8.77;7.97;;;19.50;85.00;;;;;;5018196;28;20464;-79
2021/06/04 06:31:45;;;;;;;8.73;7.83;;;19.60;85.00;;;;;;5017801;28;20438;-78
2021/06/04 06:34:12;;;;;;;8.60;7.80;;;19.90;82.80;;;;;;5018174;28;20566;-78
2021/06/04 06:36:42;;;;;;;8.13;7.53;;;20.20;78.90;;;;;;5018818;28;20835;-78
2021/06/04 06:39:13;;;;;;;8.83;8.03;;;20.20;79.40;;;;;;5021043;28;20459;-78
2021/06/04 06:41:41;;;;;;;9.57;8.77;;;20.50;77.20;;;;;;5023088;28;20523;-78
2021/06/04 06:44:09;;;;;;;7.67;7.03;;;20.60;77.30;;;;;;5025237;28;20516;-79
2021/06/04 06:46:36;;;;;;;7.40;6.70;;;20.90;74.50;;;;;;5026106;28;20431;-78
2021/06/04 06:49:04;;;;;;;7.90;7.30;;;21.30;71.50;;;;;;5024641;28;20452;-79
2021/06/04 06:51:33;;;;;;;8.27;7.33;;;21.50;69.20;;;;;;5022953;28;20453;-79
2021/06/04 06:54:00;;;;;;;7.53;6.77;;;21.70;67.70;;;;;;5021811;28;20500;-79
2021/06/04 06:56:28;;;;;;;8.23;6.83;;;22.10;66.60;;;;;;5035462;28;20538;-78
2021/06/04 06:58:55;;;;;;;8.20;7.10;;;22.30;64.00;;;;;;5036401;28;20463;-78
2021/06/04 07:01:22;;;;;;;7.50;6.90;;;22.50;62.60;;;;;;5037851;28;20448;-79
2021/06/04 07:03:48;;;;;;;8.03;7.30;;;22.90;61.20;;;;;;5035789;28;20418;-78
2021/06/04 07:06:19;;;;;;;7.80;7.10;;;23.20;58.80;;;;;;5035726;28;20476;-78
2021/06/04 07:08:46;;;;;;;11.13;7.40;;;23.30;57.60;;;;;;5031032;28;20555;-79
2021/06/04 07:11:12;;;;;;;8.97;8.07;;;23.50;57.00;;;;;;5029613;28;20439;-78
2021/06/04 07:13:41;;;;;;;7.83;7.07;;;23.60;55.90;;;;;;5030200;28;21009;-79
2021/06/04 07:16:09;;;;;;;10.37;7.47;;;23.70;55.50;;;;;;5025187;28;20536;-77
2021/06/04 07:18:37;;;;;;;8.33;7.60;;;23.80;54.60;;;;;;5023793;28;20446;-78
2021/06/04 07:21:04;;;;;;;8.07;7.10;;;23.90;54.40;;;;;;5023302;28;20411;-78
2021/06/04 07:23:30;;;;;;;9.20;8.30;;;23.90;54.60;;;;;;5024348;28;20944;-78
2021/06/04 07:25:57;;;;;;;8.63;7.93;;;24.30;52.90;;;;;;5024641;28;20500;-79
2021/06/04 07:28:27;;;;;;;8.10;6.97;;;24.70;52.00;;;;;;5022340;28;20472;-79
2021/06/04 07:30:57;;;;;;;7.47;6.87;;;24.90;51.20;;;;;;5026396;28;20416;-79
2021/06/04 07:33:25;;;;;;;10.30;7.20;;;25.10;50.10;;;;;;5023437;28;20562;-79
2021/06/04 07:35:53;;;;;;;13.07;7.70;;;25.20;48.90;;;;;;5019921;28;20980;-79
2021/06/04 07:38:20;;;;;;;8.37;7.67;;;25.30;47.60;;;;;;5019831;28;20448;-79
2021/06/04 07:40:46;;;;;;;7.80;7.20;;;25.20;48.20;;;;;;5017528;28;20464;-78
2021/06/04 07:43:17;;;;;;;10.20;8.47;;;24.60;49.60;;;;;;5017924;28;20478;-78
2021/06/04 07:45:45;;;;;;;8.70;7.90;;;24.50;49.60;;;;;;5018543;28;20465;-78
2021/06/04 07:48:18;;;;;;;7.87;7.07;;;24.60;49.90;;;;;;5017912;28;20484;-78
2021/06/04 07:50:45;;;;;;;7.93;7.13;;;24.90;48.60;;;;;;5016941;28;20443;-78
2021/06/04 07:53:14;;;;;;;7.87;7.17;;;25.30;47.00;;;;;;5017272;28;20514;-78
2021/06/04 07:55:41;;;;;;;7.37;6.77;;;25.30;46.80;;;;;;5021469;28;20449;-78
2021/06/04 07:58:08;;;;;;;7.17;6.57;;;25.10;46.40;;;;;;5029636;28;21013;-78
2021/06/04 08:00:37;;;;;;;7.30;6.60;;;25.10;46.30;;;;;;5029141;28;20503;-78
2021/06/04 08:03:06;;;;;;;7.03;6.50;;;25.00;46.50;;;;;;5025668;28;20545;-78
2021/06/04 08:05:35;;;;;;;8.03;7.33;;;24.80;47.20;;;;;;5023801;28;20553;-79
2021/06/04 08:08:03;;;;;;;6.70;6.10;;;24.80;46.60;;;;;;5049866;22;20503;-76
2021/06/04 08:10:31;;;;;;;7.23;6.63;;;24.60;48.20;;;;;;5014997;28;20495;-76
2021/06/04 08:12:58;;;;;;;6.30;5.83;;;24.60;48.60;;;;;;5014080;28;20503;-76
2021/06/04 08:15:27;;;;;;;6.87;6.00;;;24.90;47.30;;;;;;5018715;28;20513;-76
2021/06/04 08:17:54;;;;;;;7.13;6.53;;;25.00;47.60;;;;;;5014324;28;20452;-76
2021/06/04 08:20:25;;;;;;;6.70;6.20;;;25.30;46.30;;;;;;5016362;28;20462;-76
2021/06/04 08:22:55;;;;;;;6.33;5.93;;;25.50;45.70;;;;;;5016790;28;20461;-76
2021/06/04 08:25:23;;;;;;;8.20;7.40;;;25.50;45.50;;;;;;5026084;28;20461;-76
2021/06/04 08:27:50;;;;;;;7.00;5.87;;;25.50;45.60;;;;;;5027057;28;20483;-75
2021/06/04 08:30:17;;;;;;;6.73;6.13;;;25.60;45.70;;;;;;5023461;28;20559;-76
2021/06/04 08:32:44;;;;;;;8.20;6.60;;;25.70;45.40;;;;;;5022374;28;21007;-77
2021/06/04 08:35:12;;;;;;;6.47;5.97;;;25.70;45.50;;;;;;5022695;28;20435;-77
2021/06/04 08:37:39;;;;;;;7.30;6.57;;;25.80;44.70;;;;;;5028929;28;20463;-76
2021/06/04 08:40:12;;;;;;;7.80;6.10;;;25.60;44.30;;;;;;5027521;28;20537;-75
2021/06/04 08:42:52;;;;;;;6.27;5.73;;;25.50;44.70;;;;;;5031130;28;20481;-75
2021/06/04 08:45:34;;;;;;;7.67;6.97;;;25.50;44.80;;;;;;5034661;28;20430;-76
2021/06/04 08:48:10;;;;;;;6.73;6.10;;;25.50;44.60;;;;;;5020791;28;20477;-75
2021/06/04 08:50:44;;;;;;;6.97;6.13;;;25.70;44.00;;;;;;5025346;28;20460;-76
2021/06/04 08:53:20;;;;;;;7.13;6.43;;;25.80;44.00;;;;;;5035346;28;20493;-77
2021/06/04 08:55:55;;;;;;;7.27;6.67;;;25.90;44.10;;;;;;5037100;28;20419;-77
2021/06/04 08:58:45;;;;;;;7.33;6.70;;;25.90;44.10;;;;;;5036371;28;20473;-78
2021/06/04 09:01:15;;;;;;;7.93;7.20;;;25.90;44.10;;;;;;5036516;28;20435;-77
2021/06/04 09:03:47;;;;;;;7.13;6.37;;;25.80;44.00;;;;;;5036368;28;20427;-75
2021/06/04 09:06:21;;;;;;;7.57;6.70;;;25.80;44.00;;;;;;5035944;28;20475;-75
2021/06/04 09:08:48;;;;;;;8.03;7.23;;;25.70;44.00;;;;;;5028710;28;20535;-75
2021/06/04 09:11:25;;;;;;;10.87;7.53;;;25.80;44.00;;;;;;5013643;28;20879;-75
2021/06/04 09:13:52;;;;;;;7.63;6.90;;;25.90;44.60;;;;;;5013846;28;20631;-75
2021/06/04 09:16:30;;;;;;;8.63;7.67;;;25.80;44.00;;;;;;5025047;28;20423;-76
2021/06/04 09:19:03;;;;;;;6.70;6.10;;;26.00;44.20;;;;;;5036760;28;20484;-76
2021/06/04 09:21:33;;;;;;;6.87;6.37;;;26.00;44.20;;;;;;5036171;28;20446;-77
2021/06/04 09:24:02;;;;;;;8.20;7.40;;;26.50;44.50;;;;;;5028483;28;20451;-75
2021/06/04 09:26:31;;;;;;;12.90;7.13;;;26.60;43.20;;;;;;5012254;28;20466;-74
2021/06/04 09:29:19;;;;;;;7.40;6.80;;;26.50;43.80;;;;;;5013834;28;20534;-77
2021/06/04 09:31:48;;;;;;;8.30;7.03;;;26.50;43.90;;;;;;5013217;28;20478;-76
2021/06/04 09:34:26;;;;;;;10.07;6.87;;;26.60;43.40;;;;;;5013193;28;20529;-75
2021/06/04 09:36:55;;;;;;;8.40;7.60;;;26.60;42.90;;;;;;5014268;28;20429;-77
2021/06/04 09:39:27;;;;;;;6.77;5.60;;;26.60;43.10;;;;;;5012850;28;20506;-75
2021/06/04 09:42:14;;;;;;;6.87;6.27;;;26.60;43.20;;;;;;5014805;28;21032;-74
2021/06/04 09:44:53;;;;;;;7.87;7.17;;;26.60;43.30;;;;;;5020382;28;20437;-76
2021/06/04 09:47:27;;;;;;;6.30;5.70;;;26.90;41.50;;;;;;5014630;28;20499;-76
2021/06/04 09:49:55;;;;;;;6.40;5.80;;;27.20;41.10;;;;;;5012636;28;20464;-76
2021/06/04 09:52:26;;;;;;;8.03;6.13;;;27.20;40.70;;;;;;5012214;28;20483;-76
2021/06/04 09:55:13;;;;;;;7.70;7.00;;;27.20;40.90;;;;;;5011939;28;20475;-76
2021/06/04 09:58:01;;;;;;;7.33;6.73;;;26.90;41.70;;;;;;5012518;28;20537;-76
2021/06/04 10:00:31;;;;;;;6.83;5.73;;;26.60;44.20;;;;;;5013091;28;20437;-76
2021/06/04 10:03:23;;;;;;;6.17;5.67;;;26.80;42.00;;;;;;5012878;28;20433;-76
2021/06/04 10:05:54;;;;;;;6.63;5.60;;;27.00;40.50;;;;;;5013534;28;20948;-74
2021/06/04 10:08:26;;;;;;;7.70;7.00;;;27.30;40.40;;;;;;5016829;28;20994;-76
2021/06/04 10:11:06;;;;;;;9.80;7.57;;;27.20;40.80;;;;;;5017710;28;20472;-75
2021/06/04 10:13:43;;;;;;;6.67;6.10;;;27.00;41.40;;;;;;5016141;28;20503;-76
2021/06/04 10:16:31;;;;;;;6.73;6.00;;;27.00;41.70;;;;;;5018801;28;20416;-75
2021/06/04 10:18:58;;;;;;;9.00;6.10;;;27.40;40.20;;;;;;5020963;28;20853;-76
2021/06/04 10:21:31;;;;;;;6.17;5.67;;;27.70;38.80;;;;;;5025723;28;20453;-77
2021/06/04 10:24:01;;;;;;;5.60;5.20;;;27.60;37.40;;;;;;5020783;28;20462;-76
2021/06/04 10:26:29;;;;;;;6.47;5.97;;;27.60;38.20;;;;;;5017524;28;20456;-76
2021/06/04 10:29:15;;;;;;;10.30;5.97;;;27.50;38.70;;;;;;5017606;28;20502;-76
2021/06/04 10:31:50;;;;;;;7.77;5.23;;;27.60;38.50;;;;;;5017762;28;20455;-76
2021/06/04 10:34:53;;;;;;;7.00;6.40;;;27.80;36.90;;;;;;5017330;28;20457;-74
2021/06/04 10:37:23;;;;;;;6.77;5.10;;;27.50;37.60;;;;;;5016774;28;20461;-77
2021/06/04 10:39:54;;;;;;;5.63;5.13;;;27.50;37.80;;;;;;5016315;28;20529;-76
2021/06/04 10:42:30;;;;;;;5.40;4.50;;;27.80;35.90;;;;;;5018320;28;20450;-73
2021/06/04 10:45:17;;;;;;;5.63;4.83;;;28.10;36.10;;;;;;5018802;28;20495;-76
2021/06/04 10:47:58;;;;;;;6.67;4.70;;;28.30;36.10;;;;;;5017463;28;20520;-75
2021/06/04 10:50:27;;;;;;;5.43;5.03;;;28.40;35.50;;;;;;5017688;28;20502;-76
2021/06/04 10:53:05;;;;;;;6.57;5.90;;;28.60;35.70;;;;;;5018319;28;20498;-76
2021/06/04 10:55:37;;;;;;;5.33;5.03;;;28.80;35.20;;;;;;5023381;28;20857;-76
2021/06/04 10:58:14;;;;;;;5.13;4.73;;;28.90;34.40;;;;;;5024879;28;20530;-76
2021/06/04 11:00:48;;;;;;;5.27;4.83;;;28.90;33.50;;;;;;5019370;28;20419;-75
2021/06/04 11:03:17;;;;;;;5.43;4.37;;;29.00;33.30;;;;;;5027241;28;20489;-76
2021/06/04 11:05:51;;;;;;;4.80;4.40;;;28.80;33.70;;;;;;5034249;28;20425;-76
2021/06/04 11:08:31;;;;;;;5.40;4.90;;;28.50;33.90;;;;;;5018899;28;20453;-76
2021/06/04 11:11:05;;;;;;;6.73;4.33;;;28.50;33.50;;;;;;5018268;28;20436;-75
2021/06/04 11:13:46;;;;;;;3.97;3.70;;;28.60;34.00;;;;;;5019366;28;20480;-76
2021/06/04 11:16:22;;;;;;;4.97;4.47;;;28.90;32.70;;;;;;5019725;28;20444;-77
2021/06/04 11:18:53;;;;;;;4.90;4.13;;;28.70;32.60;;;;;;5020172;28;21046;-76
2021/06/04 11:21:31;;;;;;;5.53;4.67;;;28.80;32.30;;;;;;5024817;28;20473;-75
2021/06/04 11:24:04;;;;;;;6.00;5.10;;;28.90;32.70;;;;;;5030656;28;20424;-78
2021/06/04 11:26:34;;;;;;;5.90;4.53;;;29.00;32.90;;;;;;5030005;28;20487;-75
2021/06/04 11:29:06;;;;;;;18.20;5.73;;;29.10;32.50;;;;;;5024947;28;20556;-75
2021/06/04 11:32:07;;;;;;;6.87;5.30;;;29.30;32.70;;;;;;5015465;28;20476;-77
2021/06/04 11:34:44;;;;;;;7.27;5.10;;;29.40;33.00;;;;;;4957324;28;20461;-76
2021/06/04 11:37:16;;;;;;;5.13;4.20;;;29.50;33.00;;;;;;5007670;28;20504;-76
2021/06/04 11:39:47;;;;;;;5.27;4.77;;;29.80;32.30;;;;;;5018775;28;20471;-76
2021/06/04 11:42:18;;;;;;;5.00;4.50;;;30.10;31.50;;;;;;5017214;28;20490;-76
2021/06/04 11:44:48;;;;;;;4.67;3.77;;;30.10;30.60;;;;;;5015790;28;20992;-75
2021/06/04 11:47:31;;;;;;;5.07;3.73;;;30.30;29.70;;;;;;5017537;28;20712;-75
2021/06/04 11:50:34;;;;;;;4.97;4.60;;;30.00;29.30;;;;;;5023561;28;20474;-76
2021/06/04 11:53:33;;;;;;;7.10;4.17;;;30.10;28.80;;;;;;5035543;28;20509;-76
2021/06/04 11:56:01;;;;;;;5.30;3.90;;;30.20;28.20;;;;;;5032576;28;20477;-76
2021/06/04 11:58:50;;;;;;;5.57;3.80;;;30.10;28.50;;;;;;5024318;28;20941;-77
2021/06/04 12:01:41;;;;;;;3.90;3.47;;;29.90;29.00;;;;;;5014699;28;20455;-76
2021/06/04 12:04:14;;;;;;;4.00;3.60;;;29.60;29.30;;;;;;5021865;28;20449;-77
2021/06/04 12:07:04;;;;;;;7.10;3.63;;;29.50;29.20;;;;;;5020585;28;20862;-75
2021/06/04 12:09:48;;;;;;;5.33;3.30;;;29.80;28.80;;;;;;5013966;28;20460;-77
2021/06/04 12:13:01;;;;;;;7.33;3.60;;;29.80;28.20;;;;;;5014428;28;20446;-76
2021/06/04 12:15:45;;;;;;;5.43;3.17;;;29.80;27.10;;;;;;5013848;28;20543;-76
2021/06/04 12:19:06;;;;;;;3.00;2.80;;;29.90;26.90;;;;;;5014283;28;20894;-76
2021/06/04 12:22:09;;;;;;;5.00;2.90;;;29.90;27.60;;;;;;4998874;28;21020;-76
2021/06/04 12:24:57;;;;;;;4.33;3.00;;;29.80;26.90;;;;;;5013671;28;20536;-76
2021/06/04 12:28:11;;;;;;;3.43;3.10;;;30.00;27.00;;;;;;5014337;28;20508;-76
2021/06/04 12:31:01;;;;;;;5.67;3.30;;;30.10;27.00;;;;;;5014907;28;20455;-75
2021/06/04 12:33:35;;;;;;;4.30;3.00;;;29.90;26.90;;;;;;5016637;28;20495;-77
2021/06/04 12:36:02;;;;;;;4.97;3.47;;;29.90;26.90;;;;;;5016661;28;20497;-76
2021/06/04 12:38:33;;;;;;;4.50;3.60;;;29.90;26.90;;;;;;5016684;28;20995;-76
2021/06/04 12:41:02;;;;;;;6.53;3.20;;;29.90;27.00;;;;;;5016319;28;20477;-76
2021/06/04 12:43:31;;;;;;;9.00;3.43;;;29.70;28.10;;;;;;5014119;28;20908;-76
2021/06/04 12:46:11;;;;;;;6.20;3.00;;;29.80;27.10;;;;;;5013293;28;20458;-76
2021/06/04 12:48:41;;;;;;;4.80;3.47;;;29.90;27.10;;;;;;5014019;28;20765;-76
2021/06/04 12:51:13;;;;;;;5.83;3.47;;;30.00;27.00;;;;;;5014874;28;20808;-77
2021/06/04 12:53:42;;;;;;;5.87;3.30;;;30.30;27.10;;;;;;5013629;28;20580;-75
2021/06/04 12:56:21;;;;;;;5.40;3.60;;;30.40;27.80;;;;;;5013536;28;20456;-76
2021/06/04 12:58:49;;;;;;;3.83;3.40;;;30.50;27.30;;;;;;5013963;28;20972;-75
2021/06/04 13:01:20;;;;;;;6.13;4.30;;;30.30;27.10;;;;;;5013853;28;20479;-76
2021/06/04 13:03:49;;;;;;;5.10;3.30;;;30.00;28.00;;;;;;5014295;28;20460;-76
2021/06/04 13:06:34;;;;;;;4.30;3.77;;;29.80;29.00;;;;;;5014670;28;20437;-76
2021/06/04 13:09:03;;;;;;;4.57;3.93;;;29.40;29.80;;;;;;5015416;28;20480;-75
2021/06/04 13:11:43;;;;;;;9.20;3.20;;;29.00;30.70;;;;;;5014725;28;20427;-75